Aviation Digital Data Service (ADDS)

Output produced by METARs form (0747 UTC 18 February 2019)
found at http://www.aviationweather.gov/metar/data/
 
METAR text: ENTC 180720Z VRB03KT CAVOK M04/M07 Q1002 NOSIG RMK WIND 2600FT 10015KT
Conditions at: ENTC (TROMSO/LANGNES , NO) observed 0720 UTC 18 February 2019
Temperature: -4.0°C (25°F)
Dewpoint: -7.0°C (19°F) [RH = 80%]
Pressure (altimeter): 29.59 inches Hg (1002.0 mb)
Winds: variable direction winds at 3 MPH (3 knots; 1.5 m/s)
Visibility: 6 or more miles (10+ km)
Ceiling: ceiling and visibility are OK
Clouds: unknown
Weather: no significant weather observed at this time

METAR text: ENTC 180650Z VRB02KT CAVOK M04/M06 Q1003 NOSIG RMK WIND 2600FT 10017KT
Conditions at: ENTC (TROMSO/LANGNES , NO) observed 0650 UTC 18 February 2019
Temperature: -4.0°C (25°F)
Dewpoint: -6.0°C (21°F) [RH = 86%]
Pressure (altimeter): 29.62 inches Hg (1003.0 mb)
Winds: variable direction winds at 2 MPH (2 knots; 1.0 m/s)
Visibility: 6 or more miles (10+ km)
Ceiling: ceiling and visibility are OK
Clouds: unknown
Weather: no significant weather observed at this time

METAR text: ENTC 180620Z VRB03KT CAVOK M04/M06 Q1003 NOSIG RMK WIND 2600FT 10018KT
Conditions at: ENTC (TROMSO/LANGNES , NO) observed 0620 UTC 18 February 2019
Temperature: -4.0°C (25°F)
Dewpoint: -6.0°C (21°F) [RH = 86%]
Pressure (altimeter): 29.62 inches Hg (1003.0 mb)
Winds: variable direction winds at 3 MPH (3 knots; 1.5 m/s)
Visibility: 6 or more miles (10+ km)
Ceiling: ceiling and visibility are OK
Clouds: unknown
Weather: no significant weather observed at this time

METAR text: ENTC 180550Z 16003KT 060V200 CAVOK M03/M06 Q1004 RMK WIND 2600FT 10018KT
Conditions at: ENTC (TROMSO/LANGNES , NO) observed 0550 UTC 18 February 2019
Temperature: -3.0°C (27°F)
Dewpoint: -6.0°C (21°F) [RH = 80%]
Pressure (altimeter): 29.65 inches Hg (1004.0 mb)
Winds: from the SSE (160 degrees) at 3 MPH (3 knots; 1.5 m/s)
Visibility: 6 or more miles (10+ km)
Ceiling: ceiling and visibility are OK
Clouds: unknown
Weather: no significant weather observed at this time

METAR text: ENTC 180520Z 07008KT 040V100 CAVOK M03/M07 Q1004 RMK WIND 2600FT 10017KT
Conditions at: ENTC (TROMSO/LANGNES , NO) observed 0520 UTC 18 February 2019
Temperature: -3.0°C (27°F)
Dewpoint: -7.0°C (19°F) [RH = 74%]
Pressure (altimeter): 29.65 inches Hg (1004.0 mb)
Winds: from the ENE (70 degrees) at 9 MPH (8 knots; 4.1 m/s)
Visibility: 6 or more miles (10+ km)
Ceiling: ceiling and visibility are OK
Clouds: unknown
Weather: no significant weather observed at this time

METAR text: ENTC 180450Z 05011KT CAVOK M03/M07 Q1005 RMK WIND 2600FT 10017KT
Conditions at: ENTC (TROMSO/LANGNES , NO) observed 0450 UTC 18 February 2019
Temperature: -3.0°C (27°F)
Dewpoint: -7.0°C (19°F) [RH = 74%]
Pressure (altimeter): 29.68 inches Hg (1005.0 mb)
Winds: from the NE (50 degrees) at 13 MPH (11 knots; 5.7 m/s)
Visibility: 6 or more miles (10+ km)
Ceiling: ceiling and visibility are OK
Clouds: unknown
Weather: no significant weather observed at this time

METAR text: ENTC 180420Z 04012KT CAVOK M03/M06 Q1006 RMK WIND 2600FT 10017KT
Conditions at: ENTC (TROMSO/LANGNES , NO) observed 0420 UTC 18 February 2019
Temperature: -3.0°C (27°F)
Dewpoint: -6.0°C (21°F) [RH = 80%]
Pressure (altimeter): 29.70 inches Hg (1006.0 mb)
Winds: from the NE (40 degrees) at 14 MPH (12 knots; 6.2 m/s)
Visibility: 6 or more miles (10+ km)
Ceiling: ceiling and visibility are OK
Clouds: unknown
Weather: no significant weather observed at this time

METAR text: ENTC 180350Z 04010KT CAVOK M03/M07 Q1006 RMK WIND 2600FT 10014KT
Conditions at: ENTC (TROMSO/LANGNES , NO) observed 0350 UTC 18 February 2019
Temperature: -3.0°C (27°F)
Dewpoint: -7.0°C (19°F) [RH = 74%]
Pressure (altimeter): 29.70 inches Hg (1006.0 mb)
Winds: from the NE (40 degrees) at 12 MPH (10 knots; 5.1 m/s)
Visibility: 6 or more miles (10+ km)
Ceiling: ceiling and visibility are OK
Clouds: unknown
Weather: no significant weather observed at this time

METAR text: ENTC 180320Z 04009KT CAVOK M03/M07 Q1007 RMK WIND 2600FT VRB12KT
Conditions at: ENTC (TROMSO/LANGNES , NO) observed 0320 UTC 18 February 2019
Temperature: -3.0°C (27°F)
Dewpoint: -7.0°C (19°F) [RH = 74%]
Pressure (altimeter): 29.73 inches Hg (1007.0 mb)
Winds: from the NE (40 degrees) at 10 MPH (9 knots; 4.6 m/s)
Visibility: 6 or more miles (10+ km)
Ceiling: ceiling and visibility are OK
Clouds: unknown
Weather: no significant weather observed at this time

METAR text: ENTC 180250Z 06005KT 9999 FEW030 M05/M07 Q1008 RMK WIND 2600FT 09010KT
Conditions at: ENTC (TROMSO/LANGNES , NO) observed 0250 UTC 18 February 2019
Temperature: -5.0°C (23°F)
Dewpoint: -7.0°C (19°F) [RH = 86%]
Pressure (altimeter): 29.76 inches Hg (1008.0 mb)
Winds: from the ENE (60 degrees) at 6 MPH (5 knots; 2.6 m/s)
Visibility: 6 or more miles (10+ km)
Ceiling: at least 12,000 feet AGL
Clouds: few clouds at 3000 feet AGL
Weather: no significant weather observed at this time

METAR text: ENTC 180220Z 07003KT 030V100 9999 SCT030 M05/M07 Q1009 RMK WIND 2600FT 10012KT
Conditions at: ENTC (TROMSO/LANGNES , NO) observed 0220 UTC 18 February 2019
Temperature: -5.0°C (23°F)
Dewpoint: -7.0°C (19°F) [RH = 86%]
Pressure (altimeter): 29.79 inches Hg (1009.0 mb)
Winds: from the ENE (70 degrees) at 3 MPH (3 knots; 1.5 m/s)
Visibility: 6 or more miles (10+ km)
Ceiling: at least 12,000 feet AGL
Clouds: scattered clouds at 3000 feet AGL
Weather: no significant weather observed at this time

METAR text: ENTC 172350Z 04005KT CAVOK M03/M05 Q1011 RMK WIND 2600FT 11008KT
Conditions at: ENTC (TROMSO/LANGNES , NO) observed 2350 UTC 17 February 2019
Temperature: -3.0°C (27°F)
Dewpoint: -5.0°C (23°F) [RH = 86%]
Pressure (altimeter): 29.85 inches Hg (1011.0 mb)
Winds: from the NE (40 degrees) at 6 MPH (5 knots; 2.6 m/s)
Visibility: 6 or more miles (10+ km)
Ceiling: ceiling and visibility are OK
Clouds: unknown
Weather: no significant weather observed at this time

METAR text: ENTC 172320Z 04006KT 9999 BKN072 M03/M05 Q1011 RMK WIND 2600FT 12007KT
Conditions at: ENTC (TROMSO/LANGNES , NO) observed 2320 UTC 17 February 2019
Temperature: -3.0°C (27°F)
Dewpoint: -5.0°C (23°F) [RH = 86%]
Pressure (altimeter): 29.85 inches Hg (1011.0 mb)
Winds: from the NE (40 degrees) at 7 MPH (6 knots; 3.1 m/s)
Visibility: 6 or more miles (10+ km)
Ceiling: 7200 feet AGL
Clouds: broken clouds at 7200 feet AGL
Weather: no significant weather observed at this time

METAR text: ENTC 172250Z 06005KT 9999 BKN072 M04/M05 Q1012 RMK WIND 2600FT 13007KT
Conditions at: ENTC (TROMSO/LANGNES , NO) observed 2250 UTC 17 February 2019
Temperature: -4.0°C (25°F)
Dewpoint: -5.0°C (23°F) [RH = 93%]
Pressure (altimeter): 29.88 inches Hg (1012.0 mb)
Winds: from the ENE (60 degrees) at 6 MPH (5 knots; 2.6 m/s)
Visibility: 6 or more miles (10+ km)
Ceiling: 7200 feet AGL
Clouds: broken clouds at 7200 feet AGL
Weather: no significant weather observed at this time

METAR text: ENTC 172220Z VRB02KT 9999 FEW010 BKN072 M04/M05 Q1012 RMK WIND 2600FT 13007KT
Conditions at: ENTC (TROMSO/LANGNES , NO) observed 2220 UTC 17 February 2019
Temperature: -4.0°C (25°F)
Dewpoint: -5.0°C (23°F) [RH = 93%]
Pressure (altimeter): 29.88 inches Hg (1012.0 mb)
Winds: variable direction winds at 2 MPH (2 knots; 1.0 m/s)
Visibility: 6 or more miles (10+ km)
Ceiling: 7200 feet AGL
Clouds: few clouds at 1000 feet AGL
broken clouds at 7200 feet AGL
Weather: no significant weather observed at this time

METAR text: ENTC 172150Z VRB02KT 9999 FEW010 BKN072 M04/M05 Q1013 NOSIG RMK WIND 2600FT 14005KT
Conditions at: ENTC (TROMSO/LANGNES , NO) observed 2150 UTC 17 February 2019
Temperature: -4.0°C (25°F)
Dewpoint: -5.0°C (23°F) [RH = 93%]
Pressure (altimeter): 29.91 inches Hg (1013.0 mb)
Winds: variable direction winds at 2 MPH (2 knots; 1.0 m/s)
Visibility: 6 or more miles (10+ km)
Ceiling: 7200 feet AGL
Clouds: few clouds at 1000 feet AGL
broken clouds at 7200 feet AGL
Weather: no significant weather observed at this time

METAR text: ENTC 172120Z VRB02KT 9999 FEW010 BKN072 M04/M05 Q1013 NOSIG RMK WIND 2600FT 12007KT
Conditions at: ENTC (TROMSO/LANGNES , NO) observed 2120 UTC 17 February 2019
Temperature: -4.0°C (25°F)
Dewpoint: -5.0°C (23°F) [RH = 93%]
Pressure (altimeter): 29.91 inches Hg (1013.0 mb)
Winds: variable direction winds at 2 MPH (2 knots; 1.0 m/s)
Visibility: 6 or more miles (10+ km)
Ceiling: 7200 feet AGL
Clouds: few clouds at 1000 feet AGL
broken clouds at 7200 feet AGL
Weather: no significant weather observed at this time

METAR text: ENTC 172050Z 00000KT 9999 FEW010 BKN072 M04/M05 Q1013 NOSIG RMK WIND 2600FT 11008KT
Conditions at: ENTC (TROMSO/LANGNES , NO) observed 2050 UTC 17 February 2019
Temperature: -4.0°C (25°F)
Dewpoint: -5.0°C (23°F) [RH = 93%]
Pressure (altimeter): 29.91 inches Hg (1013.0 mb)
Winds: calm
Visibility: 6 or more miles (10+ km)
Ceiling: 7200 feet AGL
Clouds: few clouds at 1000 feet AGL
broken clouds at 7200 feet AGL
Weather: no significant weather observed at this time

METAR text: ENTC 172020Z VRB02KT 9999 FEW033 BKN086 M04/M05 Q1013 NOSIG RMK WIND 2600FT 11007KT
Conditions at: ENTC (TROMSO/LANGNES , NO) observed 2020 UTC 17 February 2019
Temperature: -4.0°C (25°F)
Dewpoint: -5.0°C (23°F) [RH = 93%]
Pressure (altimeter): 29.91 inches Hg (1013.0 mb)
Winds: variable direction winds at 2 MPH (2 knots; 1.0 m/s)
Visibility: 6 or more miles (10+ km)
Ceiling: 8600 feet AGL
Clouds: few clouds at 3300 feet AGL
broken clouds at 8600 feet AGL
Weather: no significant weather observed at this time

METAR text: ENTC 171950Z 11002KT 9999 FEW039 BKN084 M04/M05 Q1014 NOSIG RMK WIND 2600FT 09005KT
Conditions at: ENTC (TROMSO/LANGNES , NO) observed 1950 UTC 17 February 2019
Temperature: -4.0°C (25°F)
Dewpoint: -5.0°C (23°F) [RH = 93%]
Pressure (altimeter): 29.94 inches Hg (1014.0 mb)
Winds: from the ESE (110 degrees) at 2 MPH (2 knots; 1.0 m/s)
Visibility: 6 or more miles (10+ km)
Ceiling: 8400 feet AGL
Clouds: few clouds at 3900 feet AGL
broken clouds at 8400 feet AGL
Weather: no significant weather observed at this time

METAR text: ENTC 171920Z 07003KT 020V100 9999 SCT038 BKN088 M04/M05 Q1014 NOSIG RMK WIND 2600FT 06005KT
Conditions at: ENTC (TROMSO/LANGNES , NO) observed 1920 UTC 17 February 2019
Temperature: -4.0°C (25°F)
Dewpoint: -5.0°C (23°F) [RH = 93%]
Pressure (altimeter): 29.94 inches Hg (1014.0 mb)
Winds: from the ENE (70 degrees) at 3 MPH (3 knots; 1.5 m/s)
Visibility: 6 or more miles (10+ km)
Ceiling: 8800 feet AGL
Clouds: scattered clouds at 3800 feet AGL
broken clouds at 8800 feet AGL
Weather: no significant weather observed at this time

METAR text: ENTC 171850Z 06003KT 9999 FEW009 BKN038 M04/M05 Q1014 NOSIG RMK WIND 2600FT 07006KT
Conditions at: ENTC (TROMSO/LANGNES , NO) observed 1850 UTC 17 February 2019
Temperature: -4.0°C (25°F)
Dewpoint: -5.0°C (23°F) [RH = 93%]
Pressure (altimeter): 29.94 inches Hg (1014.0 mb)
Winds: from the ENE (60 degrees) at 3 MPH (3 knots; 1.5 m/s)
Visibility: 6 or more miles (10+ km)
Ceiling: 3800 feet AGL
Clouds: few clouds at 900 feet AGL
broken clouds at 3800 feet AGL
Weather: no significant weather observed at this time

METAR text: ENTC 171820Z VRB02KT 9999 FEW009 BKN038 M04/M05 Q1014 NOSIG RMK WIND 2600FT 04006KT
Conditions at: ENTC (TROMSO/LANGNES , NO) observed 1820 UTC 17 February 2019
Temperature: -4.0°C (25°F)
Dewpoint: -5.0°C (23°F) [RH = 93%]
Pressure (altimeter): 29.94 inches Hg (1014.0 mb)
Winds: variable direction winds at 2 MPH (2 knots; 1.0 m/s)
Visibility: 6 or more miles (10+ km)
Ceiling: 3800 feet AGL
Clouds: few clouds at 900 feet AGL
broken clouds at 3800 feet AGL
Weather: no significant weather observed at this time

METAR text: ENTC 171750Z VRB02KT 8000 -SN FEW007 BKN032 M04/M05 Q1014 NOSIG RMK WIND 2600FT 04007KT
Conditions at: ENTC (TROMSO/LANGNES , NO) observed 1750 UTC 17 February 2019
Temperature: -4.0°C (25°F)
Dewpoint: -5.0°C (23°F) [RH = 93%]
Pressure (altimeter): 29.94 inches Hg (1014.0 mb)
Winds: variable direction winds at 2 MPH (2 knots; 1.0 m/s)
Visibility: 5 miles ( 8 km)
Ceiling: 3200 feet AGL
Clouds: few clouds at 700 feet AGL
broken clouds at 3200 feet AGL
Weather: -SN  (light snow)

METAR text: ENTC 171720Z VRB02KT 6000 -SN FEW007 BKN032 M03/M04 Q1014 NOSIG RMK WIND 2600FT 03005KT
Conditions at: ENTC (TROMSO/LANGNES , NO) observed 1720 UTC 17 February 2019
Temperature: -3.0°C (27°F)
Dewpoint: -4.0°C (25°F) [RH = 93%]
Pressure (altimeter): 29.94 inches Hg (1014.0 mb)
Winds: variable direction winds at 2 MPH (2 knots; 1.0 m/s)
Visibility: 4 miles ( 6 km)
Ceiling: 3200 feet AGL
Clouds: few clouds at 700 feet AGL
broken clouds at 3200 feet AGL
Weather: -SN  (light snow)

METAR text: ENTC 171650Z VRB02KT 9999 VCSH FEW007 BKN032 M03/M05 Q1015 NOSIG RMK WIND 2600FT 02008KT
Conditions at: ENTC (TROMSO/LANGNES , NO) observed 1650 UTC 17 February 2019
Temperature: -3.0°C (27°F)
Dewpoint: -5.0°C (23°F) [RH = 86%]
Pressure (altimeter): 29.97 inches Hg (1015.0 mb)
Winds: variable direction winds at 2 MPH (2 knots; 1.0 m/s)
Visibility: 6 or more miles (10+ km)
Ceiling: 3200 feet AGL
Clouds: few clouds at 700 feet AGL
broken clouds at 3200 feet AGL
Weather: VCSH  (showers in vicinity)

METAR text: ENTC 171620Z 00000KT 9999 -SHSN BKN037 M03/M04 Q1015 NOSIG RMK WIND 2600FT 01007KT
Conditions at: ENTC (TROMSO/LANGNES , NO) observed 1620 UTC 17 February 2019
Temperature: -3.0°C (27°F)
Dewpoint: -4.0°C (25°F) [RH = 93%]
Pressure (altimeter): 29.97 inches Hg (1015.0 mb)
Winds: calm
Visibility: 6 or more miles (10+ km)
Ceiling: 3700 feet AGL
Clouds: broken clouds at 3700 feet AGL
Weather: -SHSN  (light snow showers)

METAR text: ENTC 171550Z 15002KT 4800 -SHSN FEW006 BKN038 M03/M04 Q1015 NOSIG RMK WIND 2600FT 35007KT
Conditions at: ENTC (TROMSO/LANGNES , NO) observed 1550 UTC 17 February 2019
Temperature: -3.0°C (27°F)
Dewpoint: -4.0°C (25°F) [RH = 93%]
Pressure (altimeter): 29.97 inches Hg (1015.0 mb)
Winds: from the SSE (150 degrees) at 2 MPH (2 knots; 1.0 m/s)
Visibility: 2.98 miles (4.80 km)
Ceiling: 3800 feet AGL
Clouds: few clouds at 600 feet AGL
broken clouds at 3800 feet AGL
Weather: -SHSN  (light snow showers)

METAR text: ENTC 171520Z 00000KT 5000 -SHSN VV017 M03/M04 Q1015 NOSIG RMK WIND 2600FT 34006KT
Conditions at: ENTC (TROMSO/LANGNES , NO) observed 1520 UTC 17 February 2019
Temperature: -3.0°C (27°F)
Dewpoint: -4.0°C (25°F) [RH = 93%]
Pressure (altimeter): 29.97 inches Hg (1015.0 mb)
Winds: calm
Visibility: 3 miles ( 5 km)
Ceiling: indefinite ceiling with vertical visibility of 1700 feet AGL
Clouds: obscured sky
Weather: -SHSN  (light snow showers)

METAR text: ENTC 171450Z 34005KT 2300 -SN VV012 M03/M05 Q1015 TEMPO 9999 BKN020 RMK WIND 2600FT 33011KT
Conditions at: ENTC (TROMSO/LANGNES , NO) observed 1450 UTC 17 February 2019
Temperature: -3.0°C (27°F)
Dewpoint: -5.0°C (23°F) [RH = 86%]
Pressure (altimeter): 29.97 inches Hg (1015.0 mb)
Winds: from the NNW (340 degrees) at 6 MPH (5 knots; 2.6 m/s)
Visibility: 1.43 miles (2.30 km)
Ceiling: indefinite ceiling with vertical visibility of 1200 feet AGL
Clouds: obscured sky
Weather: -SN  (light snow)

METAR text: ENTC 171420Z 31009KT 8000 -SN VV010 M02/M06 Q1015 TEMPO 2500 -SHSN VV012 RMK WIND 2600FT 34010KT
Conditions at: ENTC (TROMSO/LANGNES , NO) observed 1420 UTC 17 February 2019
Temperature: -2.0°C (28°F)
Dewpoint: -6.0°C (21°F) [RH = 74%]
Pressure (altimeter): 29.97 inches Hg (1015.0 mb)
Winds: from the NW (310 degrees) at 10 MPH (9 knots; 4.6 m/s)
Visibility: 5 miles ( 8 km)
Ceiling: indefinite ceiling with vertical visibility of 1000 feet AGL
Clouds: obscured sky
Weather: -SN  (light snow)

METAR text: ENTC 171350Z 20009KT 9999 -SHSN FEW011 SCT018 BKN053 M02/M07 Q1014 TEMPO 2500 -SHSN VV012 RMK WIND 2600FT 28009KT
Conditions at: ENTC (TROMSO/LANGNES , NO) observed 1350 UTC 17 February 2019
Temperature: -2.0°C (28°F)
Dewpoint: -7.0°C (19°F) [RH = 69%]
Pressure (altimeter): 29.94 inches Hg (1014.0 mb)
Winds: from the SSW (200 degrees) at 10 MPH (9 knots; 4.6 m/s)
Visibility: 6 or more miles (10+ km)
Ceiling: 5300 feet AGL
Clouds: few clouds at 1100 feet AGL
scattered clouds at 1800 feet AGL
broken clouds at 5300 feet AGL
Weather: -SHSN  (light snow showers)

METAR text: ENTC 171320Z 20011KT 9999 VCSH FEW049 BKN080 M01/M08 Q1014 NOSIG RMK WIND 2600FT 26007KT
Conditions at: ENTC (TROMSO/LANGNES , NO) observed 1320 UTC 17 February 2019
Temperature: -1.0°C (30°F)
Dewpoint: -8.0°C (18°F) [RH = 59%]
Pressure (altimeter): 29.94 inches Hg (1014.0 mb)
Winds: from the SSW (200 degrees) at 13 MPH (11 knots; 5.7 m/s)
Visibility: 6 or more miles (10+ km)
Ceiling: 8000 feet AGL
Clouds: few clouds at 4900 feet AGL
broken clouds at 8000 feet AGL
Weather: VCSH  (showers in vicinity)

METAR text: ENTC 171250Z 21013KT 9999 FEW053 BKN070 M02/M08 Q1014 NOSIG RMK WIND 2600FT 23011KT
Conditions at: ENTC (TROMSO/LANGNES , NO) observed 1250 UTC 17 February 2019
Temperature: -2.0°C (28°F)
Dewpoint: -8.0°C (18°F) [RH = 63%]
Pressure (altimeter): 29.94 inches Hg (1014.0 mb)
Winds: from the SSW (210 degrees) at 15 MPH (13 knots; 6.7 m/s)
Visibility: 6 or more miles (10+ km)
Ceiling: 7000 feet AGL
Clouds: few clouds at 5300 feet AGL
broken clouds at 7000 feet AGL
Weather: no significant weather observed at this time

METAR text: ENTC 171220Z 21014KT 9999 BKN061 M02/M08 Q1014 NOSIG RMK WIND 2600FT 22009KT
Conditions at: ENTC (TROMSO/LANGNES , NO) observed 1220 UTC 17 February 2019
Temperature: -2.0°C (28°F)
Dewpoint: -8.0°C (18°F) [RH = 63%]
Pressure (altimeter): 29.94 inches Hg (1014.0 mb)
Winds: from the SSW (210 degrees) at 16 MPH (14 knots; 7.2 m/s)
Visibility: 6 or more miles (10+ km)
Ceiling: 6100 feet AGL
Clouds: broken clouds at 6100 feet AGL
Weather: no significant weather observed at this time

METAR text: ENTC 171150Z 21014KT 9999 SCT066 M02/M08 Q1014 NOSIG RMK WIND 2600FT 21009KT
Conditions at: ENTC (TROMSO/LANGNES , NO) observed 1150 UTC 17 February 2019
Temperature: -2.0°C (28°F)
Dewpoint: -8.0°C (18°F) [RH = 63%]
Pressure (altimeter): 29.94 inches Hg (1014.0 mb)
Winds: from the SSW (210 degrees) at 16 MPH (14 knots; 7.2 m/s)
Visibility: 6 or more miles (10+ km)
Ceiling: at least 12,000 feet AGL
Clouds: scattered clouds at 6600 feet AGL
Weather: no significant weather observed at this time

METAR text: ENTC 171120Z 21010KT 9999 BKN070 M02/M07 Q1014 NOSIG RMK WIND 2600FT 23009KT
Conditions at: ENTC (TROMSO/LANGNES , NO) observed 1120 UTC 17 February 2019
Temperature: -2.0°C (28°F)
Dewpoint: -7.0°C (19°F) [RH = 69%]
Pressure (altimeter): 29.94 inches Hg (1014.0 mb)
Winds: from the SSW (210 degrees) at 12 MPH (10 knots; 5.1 m/s)
Visibility: 6 or more miles (10+ km)
Ceiling: 7000 feet AGL
Clouds: broken clouds at 7000 feet AGL
Weather: no significant weather observed at this time

METAR text: ENTC 171050Z 24005KT CAVOK M03/M08 Q1014 NOSIG RMK WIND 2600FT 25010KT
Conditions at: ENTC (TROMSO/LANGNES , NO) observed 1050 UTC 17 February 2019
Temperature: -3.0°C (27°F)
Dewpoint: -8.0°C (18°F) [RH = 68%]
Pressure (altimeter): 29.94 inches Hg (1014.0 mb)
Winds: from the WSW (240 degrees) at 6 MPH (5 knots; 2.6 m/s)
Visibility: 6 or more miles (10+ km)
Ceiling: ceiling and visibility are OK
Clouds: unknown
Weather: no significant weather observed at this time

METAR text: ENTC 171020Z 00000KT CAVOK M05/M07 Q1013 NOSIG RMK WIND 2600FT 26007KT
Conditions at: ENTC (TROMSO/LANGNES , NO) observed 1020 UTC 17 February 2019
Temperature: -5.0°C (23°F)
Dewpoint: -7.0°C (19°F) [RH = 86%]
Pressure (altimeter): 29.91 inches Hg (1013.0 mb)
Winds: calm
Visibility: 6 or more miles (10+ km)
Ceiling: ceiling and visibility are OK
Clouds: unknown
Weather: no significant weather observed at this time

METAR text: ENTC 170950Z VRB02KT CAVOK M06/M09 Q1013 NOSIG RMK WIND 2600FT 21005KT
Conditions at: ENTC (TROMSO/LANGNES , NO) observed 0950 UTC 17 February 2019
Temperature: -6.0°C (21°F)
Dewpoint: -9.0°C (16°F) [RH = 79%]
Pressure (altimeter): 29.91 inches Hg (1013.0 mb)
Winds: variable direction winds at 2 MPH (2 knots; 1.0 m/s)
Visibility: 6 or more miles (10+ km)
Ceiling: ceiling and visibility are OK
Clouds: unknown
Weather: no significant weather observed at this time

METAR text: ENTC 170920Z 14003KT 090V190 CAVOK M07/M10 Q1013 NOSIG RMK WIND 2600FT VRB03KT
Conditions at: ENTC (TROMSO/LANGNES , NO) observed 0920 UTC 17 February 2019
Temperature: -7.0°C (19°F)
Dewpoint: -10.0°C (14°F) [RH = 79%]
Pressure (altimeter): 29.91 inches Hg (1013.0 mb)
Winds: from the SE (140 degrees) at 3 MPH (3 knots; 1.5 m/s)
Visibility: 6 or more miles (10+ km)
Ceiling: ceiling and visibility are OK
Clouds: unknown
Weather: no significant weather observed at this time

METAR text: ENTC 170850Z 00000KT CAVOK M06/M10 Q1013 NOSIG RMK WIND 2600FT VRB02KT
Conditions at: ENTC (TROMSO/LANGNES , NO) observed 0850 UTC 17 February 2019
Temperature: -6.0°C (21°F)
Dewpoint: -10.0°C (14°F) [RH = 73%]
Pressure (altimeter): 29.91 inches Hg (1013.0 mb)
Winds: calm
Visibility: 6 or more miles (10+ km)
Ceiling: ceiling and visibility are OK
Clouds: unknown
Weather: no significant weather observed at this time

METAR text: ENTC 170820Z 11003KT CAVOK M06/M10 Q1012 NOSIG RMK WIND 2600FT 03005KT
Conditions at: ENTC (TROMSO/LANGNES , NO) observed 0820 UTC 17 February 2019
Temperature: -6.0°C (21°F)
Dewpoint: -10.0°C (14°F) [RH = 73%]
Pressure (altimeter): 29.88 inches Hg (1012.0 mb)
Winds: from the ESE (110 degrees) at 3 MPH (3 knots; 1.5 m/s)
Visibility: 6 or more miles (10+ km)
Ceiling: ceiling and visibility are OK
Clouds: unknown
Weather: no significant weather observed at this time

METAR text: ENTC 170750Z 13005KT CAVOK M04/M10 Q1012 NOSIG RMK WIND 2600FT 03006KT
Conditions at: ENTC (TROMSO/LANGNES , NO) observed 0750 UTC 17 February 2019
Temperature: -4.0°C (25°F)
Dewpoint: -10.0°C (14°F) [RH = 63%]
Pressure (altimeter): 29.88 inches Hg (1012.0 mb)
Winds: from the SE (130 degrees) at 6 MPH (5 knots; 2.6 m/s)
Visibility: 6 or more miles (10+ km)
Ceiling: ceiling and visibility are OK
Clouds: unknown
Weather: no significant weather observed at this time

METAR text: ENTC 170720Z 03007KT CAVOK M04/M10 Q1011 RMK WIND 2600FT 02010KT
Conditions at: ENTC (TROMSO/LANGNES , NO) observed 0720 UTC 17 February 2019
Temperature: -4.0°C (25°F)
Dewpoint: -10.0°C (14°F) [RH = 63%]
Pressure (altimeter): 29.85 inches Hg (1011.0 mb)
Winds: from the NNE (30 degrees) at 8 MPH (7 knots; 3.6 m/s)
Visibility: 6 or more miles (10+ km)
Ceiling: ceiling and visibility are OK
Clouds: unknown
Weather: no significant weather observed at this time

METAR text: ENTC 170650Z 03007KT CAVOK M04/M09 Q1011 RMK WIND 2600FT 02013KT
Conditions at: ENTC (TROMSO/LANGNES , NO) observed 0650 UTC 17 February 2019
Temperature: -4.0°C (25°F)
Dewpoint: -9.0°C (16°F) [RH = 68%]
Pressure (altimeter): 29.85 inches Hg (1011.0 mb)
Winds: from the NNE (30 degrees) at 8 MPH (7 knots; 3.6 m/s)
Visibility: 6 or more miles (10+ km)
Ceiling: ceiling and visibility are OK
Clouds: unknown
Weather: no significant weather observed at this time

METAR text: ENTC 170620Z 04006KT CAVOK M04/M09 Q1011 RMK WIND 2600FT 02013KT
Conditions at: ENTC (TROMSO/LANGNES , NO) observed 0620 UTC 17 February 2019
Temperature: -4.0°C (25°F)
Dewpoint: -9.0°C (16°F) [RH = 68%]
Pressure (altimeter): 29.85 inches Hg (1011.0 mb)
Winds: from the NE (40 degrees) at 7 MPH (6 knots; 3.1 m/s)
Visibility: 6 or more miles (10+ km)
Ceiling: ceiling and visibility are OK
Clouds: unknown
Weather: no significant weather observed at this time

METAR text: ENTC 170550Z 07007KT CAVOK M03/M08 Q1010 RMK WIND 2600FT 01016KT
Conditions at: ENTC (TROMSO/LANGNES , NO) observed 0550 UTC 17 February 2019
Temperature: -3.0°C (27°F)
Dewpoint: -8.0°C (18°F) [RH = 68%]
Pressure (altimeter): 29.82 inches Hg (1010.0 mb)
Winds: from the ENE (70 degrees) at 8 MPH (7 knots; 3.6 m/s)
Visibility: 6 or more miles (10+ km)
Ceiling: ceiling and visibility are OK
Clouds: unknown
Weather: no significant weather observed at this time

METAR text: ENTC 170520Z 06006KT 010V090 CAVOK M03/M08 Q1010 RMK WIND 2600FT 01024KT
Conditions at: ENTC (TROMSO/LANGNES , NO) observed 0520 UTC 17 February 2019
Temperature: -3.0°C (27°F)
Dewpoint: -8.0°C (18°F) [RH = 68%]
Pressure (altimeter): 29.82 inches Hg (1010.0 mb)
Winds: from the ENE (60 degrees) at 7 MPH (6 knots; 3.1 m/s)
Visibility: 6 or more miles (10+ km)
Ceiling: ceiling and visibility are OK
Clouds: unknown
Weather: no significant weather observed at this time

METAR text: ENTC 170450Z 01010KT CAVOK M02/M07 Q1009 RMK WIND 2600FT 36027KT
Conditions at: ENTC (TROMSO/LANGNES , NO) observed 0450 UTC 17 February 2019
Temperature: -2.0°C (28°F)
Dewpoint: -7.0°C (19°F) [RH = 69%]
Pressure (altimeter): 29.79 inches Hg (1009.0 mb)
Winds: from the N (10 degrees) at 12 MPH (10 knots; 5.1 m/s)
Visibility: 6 or more miles (10+ km)
Ceiling: ceiling and visibility are OK
Clouds: unknown
Weather: no significant weather observed at this time

METAR text: ENTC 170420Z 36014KT CAVOK M02/M07 Q1008 RMK WIND 2600FT 36031KT
Conditions at: ENTC (TROMSO/LANGNES , NO) observed 0420 UTC 17 February 2019
Temperature: -2.0°C (28°F)
Dewpoint: -7.0°C (19°F) [RH = 69%]
Pressure (altimeter): 29.76 inches Hg (1008.0 mb)
Winds: from the N (360 degrees) at 16 MPH (14 knots; 7.2 m/s)
Visibility: 6 or more miles (10+ km)
Ceiling: ceiling and visibility are OK
Clouds: unknown
Weather: no significant weather observed at this time

METAR text: ENTC 170220Z 36016KT 9999 FEW027 SCT041 BKN053 M02/M06 Q1006 RMK WIND 2600FT 36032KT
Conditions at: ENTC (TROMSO/LANGNES , NO) observed 0220 UTC 17 February 2019
Temperature: -2.0°C (28°F)
Dewpoint: -6.0°C (21°F) [RH = 74%]
Pressure (altimeter): 29.70 inches Hg (1006.0 mb)
Winds: from the N (360 degrees) at 18 MPH (16 knots; 8.2 m/s)
Visibility: 6 or more miles (10+ km)
Ceiling: 5300 feet AGL
Clouds: few clouds at 2700 feet AGL
scattered clouds at 4100 feet AGL
broken clouds at 5300 feet AGL
Weather: no significant weather observed at this time

METAR text: ENTC 170020Z 36018KT 8000 -SHSN FEW022 SCT033 BKN059 M01/M04 Q1001 RMK WIND 2600FT 36041G60KT
Conditions at: ENTC (TROMSO/LANGNES , NO) observed 0020 UTC 17 February 2019
Temperature: -1.0°C (30°F)
Dewpoint: -4.0°C (25°F) [RH = 80%]
Pressure (altimeter): 29.56 inches Hg (1001.0 mb)
Winds: from the N (360 degrees) at 21 MPH (18 knots; 9.3 m/s)
Visibility: 5 miles ( 8 km)
Ceiling: 5900 feet AGL
Clouds: few clouds at 2200 feet AGL
scattered clouds at 3300 feet AGL
broken clouds at 5900 feet AGL
Weather: -SHSN  (light snow showers)

METAR text: ENTC 162320Z 01016KT 3000 -SHSN FEW006 SCT015 BKN020 M01/M03 Q1000 RMK WIND 2600FT 36036G46KT
Conditions at: ENTC (TROMSO/LANGNES , NO) observed 2320 UTC 16 February 2019
Temperature: -1.0°C (30°F)
Dewpoint: -3.0°C (27°F) [RH = 86%]
Pressure (altimeter): 29.53 inches Hg (1000.0 mb)
Winds: from the N (10 degrees) at 18 MPH (16 knots; 8.2 m/s)
Visibility: 1.86 miles (2.99 km)
Ceiling: 2000 feet AGL
Clouds: few clouds at 600 feet AGL
scattered clouds at 1500 feet AGL
broken clouds at 2000 feet AGL
Weather: -SHSN  (light snow showers)

METAR text: ENTC 162250Z 01012G24KT 3000 -SHSN VV010 M01/M02 Q0999 RMK WIND 2600FT 35045G59KT
Conditions at: ENTC (TROMSO/LANGNES , NO) observed 2250 UTC 16 February 2019
Temperature: -1.0°C (30°F)
Dewpoint: -2.0°C (28°F) [RH = 93%]
Pressure (altimeter): 29.50 inches Hg (999.0 mb)
Winds: from the N (10 degrees) at 14 MPH (12 knots; 6.2 m/s)
gusting to 28 MPH (24 knots; 12.3 m/s)
Visibility: 1.86 miles (2.99 km)
Ceiling: indefinite ceiling with vertical visibility of 1000 feet AGL
Clouds: obscured sky
Weather: -SHSN  (light snow showers)

METAR text: ENTC 162150Z 36020KT 8000 -SHSNRA FEW008 SCT018 M00/M03 Q0997 RMK WIND 2600FT 35037KT
Conditions at: ENTC (TROMSO/LANGNES , NO) observed 2150 UTC 16 February 2019
Temperature: 0.0°C (32°F)
Dewpoint: -3.0°C (27°F) [RH = 80%]
Pressure (altimeter): 29.44 inches Hg (997.0 mb)
Winds: from the N (360 degrees) at 23 MPH (20 knots; 10.3 m/s)
Visibility: 5 miles ( 8 km)
Ceiling: at least 12,000 feet AGL
Clouds: few clouds at 800 feet AGL
scattered clouds at 1800 feet AGL
Weather: -SHSN -SHRA  (light snow showers, light rain showers)

METAR text: ENTC 162050Z 36019KT 0550 R01/1700N R19/P2000N -SN VV010 M00/M01 Q0995 RMK WIND 2600FT 35042G54KT
Conditions at: ENTC (TROMSO/LANGNES , NO) observed 2050 UTC 16 February 2019
Temperature: 0.0°C (32°F)
Dewpoint: -1.0°C (30°F) [RH = 93%]
Pressure (altimeter): 29.38 inches Hg (995.0 mb)
Winds: from the N (360 degrees) at 22 MPH (19 knots; 9.8 m/s)
Visibility: 0.34 miles (0.55 km)
Ceiling: indefinite ceiling with vertical visibility of 1000 feet AGL
Clouds: obscured sky
Weather: -SN  (light snow)

METAR text: ENTC 162020Z 36024KT 2400 -SNRA VV016 00/M02 Q0993 RMK WIND 2600FT 36059G72KT
Conditions at: ENTC (TROMSO/LANGNES , NO) observed 2020 UTC 16 February 2019
Temperature: 0.0°C (32°F)
Dewpoint: -2.0°C (28°F) [RH = 86%]
Pressure (altimeter): 29.32 inches Hg (993.0 mb)
Winds: from the N (360 degrees) at 28 MPH (24 knots; 12.3 m/s)
Visibility: 1.49 miles (2.40 km)
Ceiling: indefinite ceiling with vertical visibility of 1600 feet AGL
Clouds: obscured sky
Weather: -SN -RA  (light snow, light rain)

METAR text: ENTC 161950Z 36021KT 2800 -SNRA VV016 00/M01 Q0991 RMK WIND 2600FT 36060G77KT
Conditions at: ENTC (TROMSO/LANGNES , NO) observed 1950 UTC 16 February 2019
Temperature: 0.0°C (32°F)
Dewpoint: -1.0°C (30°F) [RH = 93%]
Pressure (altimeter): 29.26 inches Hg (991.0 mb)
Winds: from the N (360 degrees) at 24 MPH (21 knots; 10.8 m/s)
Visibility: 1.74 miles (2.80 km)
Ceiling: indefinite ceiling with vertical visibility of 1600 feet AGL
Clouds: obscured sky
Weather: -SN -RA  (light snow, light rain)

Forecast for: ENTC (TROMSO/LANGNES , NO)
Text: TAF ENTC 1806/1906 06008KT 9999 FEW012 BKN030
Forecast period: 0600 to 1800 UTC 18 February 2019
Forecast type: FROM: standard forecast or significant change
Winds: from the ENE (60 degrees) at 9 MPH (8 knots; 4.1 m/s)
Visibility: 6 or more miles 10+ km)
Ceiling: 3000 feet AGL
Clouds: few clouds at 1200 feet AGL
broken clouds at 3000 feet AGL
Weather: no significant weather forecast for this period
Text: TEMPO 1812/1906 4000 -SN VV014
Forecast period: 1200 UTC 18 February 2019 to 0600 UTC 19 February 2019
Forecast type: TEMPORARY: The following changes expected for less than half the time period
Visibility: 2.49 miles (4.01 km)
Ceiling: indefinite ceiling with vertical visibility of 1400 feet AGL
Clouds: obscured sky
Weather: -SN  (light snow)
Text: BECMG 1818/1820 06018KT
Forecast period: 1800 UTC 18 February 2019 to 0600 UTC 19 February 2019
Forecast type: BECOMING: Conditions expected to become as follows by 2000 UTC 18 February 2019
Winds: from the ENE (60 degrees) at 21 MPH (18 knots; 9.3 m/s)
Visibility: 6 or more miles 10+ km)
Ceiling: 3000 feet AGL
Clouds: few clouds at 1200 feet AGL
broken clouds at 3000 feet AGL
Weather: no significant weather forecast for this period